createdAt,value
2018-08-20T00:00:27.156Z,100474.00
2018-08-20T00:05:35.473Z,100478.00
2018-08-20T00:10:38.443Z,100482.00
2018-08-20T00:15:41.382Z,100479.00
2018-08-20T00:20:44.782Z,100471.00
2018-08-20T00:25:47.751Z,100471.00
2018-08-20T00:30:50.745Z,100465.00
2018-08-20T00:35:53.711Z,100463.00
2018-08-20T00:40:56.623Z,100467.00
2018-08-20T00:45:59.546Z,100469.00
2018-08-20T00:51:02.502Z,100468.00
2018-08-20T00:56:05.416Z,100467.00
2018-08-20T01:01:08.363Z,100472.00
2018-08-20T01:06:11.315Z,100476.00
2018-08-20T01:11:14.362Z,100474.00
2018-08-20T01:16:17.431Z,100478.00
2018-08-20T01:21:20.413Z,100476.00
2018-08-20T01:26:23.339Z,100473.00
2018-08-20T01:31:26.275Z,100459.00
2018-08-20T01:36:29.208Z,100464.00
2018-08-20T01:41:32.278Z,100457.00
2018-08-20T01:46:35.224Z,100474.00
2018-08-20T01:51:38.206Z,100472.00
2018-08-20T01:56:41.214Z,100473.00
2018-08-20T02:01:44.161Z,100459.00
2018-08-20T02:06:47.188Z,100453.00
2018-08-20T02:11:50.207Z,100461.00
2018-08-20T02:16:53.172Z,100464.00
2018-08-20T02:21:56.102Z,100455.00
2018-08-20T02:26:59.008Z,100461.00
2018-08-20T02:32:01.915Z,100468.00
2018-08-20T02:37:05.359Z,100457.00
2018-08-20T02:42:08.345Z,100452.00
2018-08-20T02:47:11.315Z,100457.00
2018-08-20T02:52:14.276Z,100445.00
2018-08-20T02:57:17.244Z,100432.00
2018-08-20T03:02:20.175Z,100435.00
2018-08-20T03:07:23.235Z,100430.00
2018-08-20T03:12:26.141Z,100429.00
2018-08-20T03:17:29.037Z,100422.00
2018-08-20T03:22:31.977Z,100430.00
2018-08-20T03:27:34.887Z,100420.00
2018-08-20T03:32:38.488Z,100424.00
2018-08-20T03:37:41.461Z,100429.00
2018-08-20T03:42:44.448Z,100441.00
2018-08-20T03:47:47.430Z,100445.00
2018-08-20T03:52:50.335Z,100441.00
2018-08-20T03:57:53.267Z,100440.00
2018-08-20T04:02:56.189Z,100457.00
2018-08-20T04:07:59.092Z,100458.00
2018-08-20T04:13:02.086Z,100455.00
2018-08-20T04:18:05.092Z,100456.00
2018-08-20T04:23:08.012Z,100456.00
2018-08-20T04:28:10.982Z,100454.00
2018-08-20T04:33:13.925Z,100449.00
2018-08-20T04:38:16.876Z,100451.00
2018-08-20T04:43:19.770Z,100442.00
2018-08-20T04:48:22.697Z,100452.00
2018-08-20T04:53:25.983Z,100451.00
2018-08-20T04:58:29.208Z,100461.00
2018-08-20T05:03:32.108Z,100475.00
2018-08-20T05:08:35.005Z,100478.00
2018-08-20T05:13:37.996Z,100491.00
2018-08-20T05:18:41.164Z,100514.00
2018-08-20T05:23:44.114Z,100516.00
2018-08-20T05:28:47.090Z,100529.00
2018-08-20T05:33:50.091Z,100551.00
2018-08-20T05:38:53.119Z,100555.00
2018-08-20T05:43:56.106Z,100565.00
2018-08-20T05:48:59.066Z,100579.00
2018-08-20T05:54:02.037Z,100581.00
2018-08-20T05:59:05.119Z,100594.00
2018-08-20T06:04:08.218Z,100593.00
2018-08-20T06:09:11.345Z,100608.00
2018-08-20T06:14:14.351Z,100615.00
2018-08-20T06:19:17.349Z,100598.00
2018-08-20T06:24:21.199Z,100601.00
2018-08-20T06:29:24.164Z,100615.00
2018-08-20T06:34:27.139Z,100606.00
2018-08-20T06:39:30.088Z,100609.00
2018-08-20T06:44:35.303Z,100631.00
2018-08-20T06:49:38.361Z,100634.00
2018-08-20T06:54:41.471Z,100629.00
2018-08-20T06:59:44.444Z,100608.00
2018-08-20T07:04:47.422Z,100605.00
2018-08-20T07:09:50.464Z,100611.00
2018-08-20T07:14:53.524Z,100605.00
2018-08-20T07:19:56.501Z,100614.00
2018-08-20T07:24:59.484Z,100626.00
2018-08-20T07:30:02.480Z,100642.00
2018-08-20T07:35:05.873Z,100639.00
2018-08-20T07:40:08.899Z,100633.00
2018-08-20T07:45:12.033Z,100628.00
2018-08-20T07:50:15.000Z,100633.00
2018-08-20T07:55:18.004Z,100634.00
2018-08-20T08:00:21.227Z,100638.00
2018-08-20T08:05:24.300Z,100642.00
2018-08-20T08:10:27.371Z,100630.00
2018-08-20T08:15:30.385Z,100610.00
2018-08-20T08:20:33.365Z,100617.00
2018-08-20T08:25:36.460Z,100623.00
2018-08-20T08:30:39.747Z,100619.00
2018-08-20T08:35:42.753Z,100619.00
2018-08-20T08:40:45.748Z,100634.00
2018-08-20T08:45:48.798Z,100624.00
2018-08-20T08:50:51.823Z,100633.00
2018-08-20T08:55:54.779Z,100636.00
2018-08-20T09:00:57.814Z,100646.00
2018-08-20T09:06:02.316Z,100647.00
2018-08-20T09:11:05.337Z,100647.00
2018-08-20T09:16:08.456Z,100646.00
2018-08-20T09:21:11.447Z,100649.00
2018-08-20T09:26:14.431Z,100640.00
2018-08-20T09:31:17.436Z,100640.00
2018-08-20T09:36:20.440Z,100634.00
2018-08-20T09:41:23.437Z,100639.00
2018-08-20T09:46:26.521Z,100635.00
2018-08-20T09:51:29.985Z,100631.00
2018-08-20T09:56:33.058Z,100626.00
2018-08-20T10:01:36.176Z,100623.00
2018-08-20T10:06:39.168Z,100623.00
2018-08-20T10:11:42.159Z,100611.00
2018-08-20T10:16:45.173Z,100616.00
2018-08-20T10:21:48.548Z,100620.00
2018-08-20T10:26:51.627Z,100603.00
2018-08-20T10:31:54.656Z,100615.00
2018-08-20T10:36:57.632Z,100614.00
2018-08-20T10:42:01.084Z,100609.00
2018-08-20T10:47:04.209Z,100617.00
2018-08-20T10:52:07.260Z,100606.00
2018-08-20T10:57:10.304Z,100596.00
2018-08-20T11:02:13.320Z,100593.00
2018-08-20T11:07:16.288Z,100596.00
2018-08-20T11:12:19.511Z,100591.00
2018-08-20T11:17:22.485Z,100587.00
2018-08-20T11:22:25.440Z,100587.00
2018-08-20T11:27:28.516Z,100586.00
2018-08-20T11:32:31.433Z,100588.00
2018-08-20T11:37:34.428Z,100595.00
2018-08-20T11:42:37.461Z,100597.00
2018-08-20T11:47:40.945Z,100592.00
2018-08-20T11:52:43.939Z,100575.00
2018-08-20T11:57:46.932Z,100577.00
2018-08-20T12:02:49.909Z,100572.00
2018-08-20T12:07:52.954Z,100576.00
2018-08-20T12:12:55.983Z,100586.00
2018-08-20T12:17:59.002Z,100587.00
2018-08-20T12:23:02.039Z,100587.00
2018-08-20T12:28:05.184Z,100583.00
2018-08-20T12:33:09.023Z,100583.00
2018-08-20T12:38:12.113Z,100582.00
2018-08-20T12:43:15.124Z,100580.00
2018-08-20T12:48:18.127Z,100580.00
2018-08-20T12:53:21.128Z,100575.00
2018-08-20T12:58:24.176Z,100579.00
2018-08-20T13:03:27.252Z,100589.00
2018-08-20T13:08:30.188Z,100575.00
2018-08-20T13:13:33.294Z,100560.00
2018-08-20T13:18:36.273Z,100564.00
2018-08-20T13:23:39.244Z,100566.00
2018-08-20T13:28:42.342Z,100555.00
2018-08-20T13:33:45.290Z,100552.00
2018-08-20T13:38:48.258Z,100546.00
2018-08-20T13:43:51.268Z,100550.00
2018-08-20T13:48:54.264Z,100543.00
2018-08-20T13:53:57.254Z,100562.00
2018-08-20T13:59:00.332Z,100554.00
2018-08-20T14:04:03.347Z,100550.00
2018-08-20T14:09:08.611Z,100541.00
2018-08-20T14:14:11.522Z,100539.00
2018-08-20T14:19:14.530Z,100546.00
2018-08-20T14:24:17.482Z,100550.00
2018-08-20T14:29:20.530Z,100551.00
2018-08-20T14:34:23.489Z,100540.00
2018-08-20T14:39:26.429Z,100545.00
2018-08-20T14:44:29.357Z,100531.00
2018-08-20T14:49:32.384Z,100531.00
2018-08-20T14:54:35.379Z,100524.00
2018-08-20T14:59:38.365Z,100526.00
2018-08-20T15:04:41.466Z,100527.00
2018-08-20T15:09:44.540Z,100516.00
2018-08-20T15:14:47.587Z,100510.00
2018-08-20T15:19:50.650Z,100514.00
2018-08-20T15:24:53.703Z,100514.00
2018-08-20T15:29:56.728Z,100516.00
2018-08-20T15:34:59.843Z,100508.00
2018-08-20T15:40:03.044Z,100505.00
2018-08-20T15:45:06.212Z,100502.00
2018-08-20T15:50:09.332Z,100498.00
2018-08-20T15:55:12.728Z,100503.00
2018-08-20T16:00:15.881Z,100497.00
2018-08-20T16:05:19.212Z,100501.00
2018-08-20T16:10:22.270Z,100491.00
2018-08-20T16:15:25.319Z,100489.00
2018-08-20T16:20:28.339Z,100487.00
2018-08-20T16:25:31.426Z,100495.00
2018-08-20T16:30:34.428Z,100477.00
2018-08-20T16:35:37.526Z,100479.00
2018-08-20T16:40:40.632Z,100472.00
2018-08-20T16:45:43.648Z,100461.00
2018-08-20T16:50:46.737Z,100474.00
2018-08-20T16:55:49.805Z,100471.00
2018-08-20T17:00:52.854Z,100468.00
2018-08-20T17:05:57.275Z,100461.00
2018-08-20T17:11:01.237Z,100474.00
2018-08-20T17:16:04.437Z,100462.00
2018-08-20T17:21:07.633Z,100469.00
2018-08-20T17:26:10.741Z,100472.00
2018-08-20T17:31:13.908Z,100470.00
2018-08-20T17:36:16.733Z,100476.00
2018-08-20T17:41:19.833Z,100479.00
2018-08-20T17:46:22.864Z,100479.00
2018-08-20T17:51:25.922Z,100481.00
2018-08-20T17:56:28.966Z,100478.00
2018-08-20T18:01:35.944Z,100475.00
2018-08-20T18:06:51.652Z,100474.00
2018-08-20T18:11:55.310Z,100486.00
2018-08-20T18:16:58.430Z,100479.00
2018-08-20T18:22:01.511Z,100481.00
2018-08-20T18:27:04.597Z,100484.00
2018-08-20T18:32:07.702Z,100490.00
2018-08-20T18:37:10.971Z,100479.00
2018-08-20T18:42:18.653Z,100488.00
2018-08-20T18:47:23.030Z,100502.00
2018-08-20T18:52:29.906Z,100504.00
2018-08-20T18:57:35.390Z,100509.00
2018-08-20T19:02:47.512Z,100525.00
2018-08-20T19:07:51.044Z,100530.00
2018-08-20T19:12:54.178Z,100528.00
2018-08-20T19:17:57.353Z,100527.00
2018-08-20T19:50:42.366Z,100535.00
2018-08-20T19:55:45.520Z,100541.00
2018-08-20T20:01:05.927Z,100553.00
2018-08-20T20:06:09.183Z,100557.00
2018-08-20T20:11:30.098Z,100560.00
2018-08-20T20:16:40.017Z,100560.00
2018-08-20T20:21:43.209Z,100557.00
2018-08-20T20:26:46.264Z,100562.00
2018-08-20T20:31:49.306Z,100566.00
2018-08-20T20:36:52.535Z,100567.00
2018-08-20T20:41:55.562Z,100572.00
2018-08-20T20:46:58.887Z,100575.00
2018-08-20T20:52:02.493Z,100578.00
2018-08-20T20:57:05.664Z,100586.00
2018-08-20T21:02:09.691Z,100580.00
2018-08-20T21:07:20.171Z,100589.00
2018-08-20T21:12:23.208Z,100592.00
2018-08-20T21:17:26.591Z,100596.00
2018-08-20T22:46:16.884Z,100637.00
2018-08-20T22:51:20.703Z,100646.00
2018-08-20T22:56:34.212Z,100652.00
2018-08-20T23:01:37.457Z,100651.00
2018-08-20T23:06:40.680Z,100649.00
2018-08-20T23:11:43.732Z,100646.00
2018-08-20T23:16:49.503Z,100644.00
2018-08-20T23:21:53.759Z,100645.00
2018-08-20T23:26:56.757Z,100656.00
2018-08-20T23:31:59.901Z,100652.00
2018-08-20T23:37:03.099Z,100658.00
2018-08-20T23:42:06.103Z,100666.00
2018-08-20T23:47:09.114Z,100661.00
2018-08-20T23:52:12.327Z,100658.00
2018-08-20T23:57:15.519Z,100654.00
